sensor_id;sensor_type;location;lat;lon;timestamp;P1;durP1;ratioP1;P2;durP2;ratioP2
50345;SDS011;36248;37.258;-121.918;2022-09-09T00:02:04;4.70;;;4.70;;
50345;SDS011;36248;37.258;-121.918;2022-09-09T00:04:46;4.85;;;4.85;;
50345;SDS011;36248;37.258;-121.918;2022-09-09T00:07:25;4.71;;;4.71;;
50345;SDS011;36248;37.258;-121.918;2022-09-09T00:10:09;4.81;;;4.81;;
50345;SDS011;36248;37.258;-121.918;2022-09-09T00:12:50;4.58;;;4.58;;
50345;SDS011;36248;37.258;-121.918;2022-09-09T00:15:26;4.54;;;4.54;;
50345;SDS011;36248;37.258;-121.918;2022-09-09T00:18:08;4.51;;;4.51;;
50345;SDS011;36248;37.258;-121.918;2022-09-09T00:20:47;4.58;;;4.58;;
50345;SDS011;36248;37.258;-121.918;2022-09-09T00:23:24;4.58;;;4.58;;
50345;SDS011;36248;37.258;-121.918;2022-09-09T00:25:57;4.35;;;4.35;;
50345;SDS011;36248;37.258;-121.918;2022-09-09T00:28:35;4.34;;;4.34;;
50345;SDS011;36248;37.258;-121.918;2022-09-09T00:31:11;4.60;;;4.60;;
50345;SDS011;36248;37.258;-121.918;2022-09-09T00:33:41;4.52;;;4.52;;
50345;SDS011;36248;37.258;-121.918;2022-09-09T00:36:13;4.48;;;4.48;;
50345;SDS011;36248;37.258;-121.918;2022-09-09T00:38:45;4.64;;;4.64;;
50345;SDS011;36248;37.258;-121.918;2022-09-09T00:41:19;4.86;;;4.86;;
50345;SDS011;36248;37.258;-121.918;2022-09-09T00:43:55;4.72;;;4.72;;
50345;SDS011;36248;37.258;-121.918;2022-09-09T00:46:34;4.83;;;4.83;;
50345;SDS011;36248;37.258;-121.918;2022-09-09T00:49:25;4.92;;;4.92;;
50345;SDS011;36248;37.258;-121.918;2022-09-09T00:52:08;5.02;;;5.02;;
50345;SDS011;36248;37.258;-121.918;2022-09-09T00:54:53;5.24;;;5.24;;
50345;SDS011;36248;37.258;-121.918;2022-09-09T00:57:29;5.00;;;5.00;;
50345;SDS011;36248;37.258;-121.918;2022-09-09T01:00:15;4.89;;;4.89;;
50345;SDS011;36248;37.258;-121.918;2022-09-09T01:02:58;4.82;;;4.82;;
50345;SDS011;36248;37.258;-121.918;2022-09-09T01:05:37;4.61;;;4.61;;
50345;SDS011;36248;37.258;-121.918;2022-09-09T01:08:14;4.45;;;4.45;;
50345;SDS011;36248;37.258;-121.918;2022-09-09T01:10:57;4.27;;;4.27;;
50345;SDS011;36248;37.258;-121.918;2022-09-09T01:13:29;4.48;;;4.48;;
50345;SDS011;36248;37.258;-121.918;2022-09-09T01:16:03;4.33;;;4.33;;
50345;SDS011;36248;37.258;-121.918;2022-09-09T01:18:37;4.36;;;4.36;;
50345;SDS011;36248;37.258;-121.918;2022-09-09T01:21:15;4.15;;;4.15;;
50345;SDS011;36248;37.258;-121.918;2022-09-09T01:23:58;4.48;;;4.48;;
50345;SDS011;36248;37.258;-121.918;2022-09-09T01:26:48;4.23;;;4.23;;
50345;SDS011;36248;37.258;-121.918;2022-09-09T01:29:21;4.13;;;4.13;;
50345;SDS011;36248;37.258;-121.918;2022-09-09T01:31:55;4.14;;;4.14;;
50345;SDS011;36248;37.258;-121.918;2022-09-09T01:34:26;4.29;;;4.29;;
50345;SDS011;36248;37.258;-121.918;2022-09-09T01:37:00;4.04;;;4.03;;
50345;SDS011;36248;37.258;-121.918;2022-09-09T01:39:33;3.97;;;3.96;;
50345;SDS011;36248;37.258;-121.918;2022-09-09T01:42:07;4.19;;;4.19;;
50345;SDS011;36248;37.258;-121.918;2022-09-09T01:44:39;4.30;;;4.30;;
50345;SDS011;36248;37.258;-121.918;2022-09-09T01:47:09;4.57;;;4.57;;
50345;SDS011;36248;37.258;-121.918;2022-09-09T01:49:38;4.59;;;4.59;;
50345;SDS011;36248;37.258;-121.918;2022-09-09T01:52:08;4.72;;;4.72;;
50345;SDS011;36248;37.258;-121.918;2022-09-09T01:54:37;5.22;;;5.17;;
50345;SDS011;36248;37.258;-121.918;2022-09-09T01:57:10;4.72;;;4.71;;
50345;SDS011;36248;37.258;-121.918;2022-09-09T01:59:49;4.57;;;4.57;;
50345;SDS011;36248;37.258;-121.918;2022-09-09T02:02:32;4.64;;;4.64;;
50345;SDS011;36248;37.258;-121.918;2022-09-09T02:05:11;4.52;;;4.52;;
50345;SDS011;36248;37.258;-121.918;2022-09-09T02:07:49;4.30;;;4.30;;
50345;SDS011;36248;37.258;-121.918;2022-09-09T02:10:23;4.47;;;4.47;;
50345;SDS011;36248;37.258;-121.918;2022-09-09T02:13:03;4.17;;;4.17;;
50345;SDS011;36248;37.258;-121.918;2022-09-09T02:15:39;4.26;;;4.26;;
50345;SDS011;36248;37.258;-121.918;2022-09-09T02:18:13;4.14;;;4.14;;
50345;SDS011;36248;37.258;-121.918;2022-09-09T02:20:48;4.45;;;4.45;;
50345;SDS011;36248;37.258;-121.918;2022-09-09T02:23:18;4.27;;;4.27;;
50345;SDS011;36248;37.258;-121.918;2022-09-09T02:25:49;3.98;;;3.98;;
50345;SDS011;36248;37.258;-121.918;2022-09-09T02:28:24;4.50;;;4.50;;
50345;SDS011;36248;37.258;-121.918;2022-09-09T02:30:56;4.33;;;4.33;;
50345;SDS011;36248;37.258;-121.918;2022-09-09T02:33:26;4.47;;;4.47;;
50345;SDS011;36248;37.258;-121.918;2022-09-09T02:36:00;4.55;;;4.55;;
50345;SDS011;36248;37.258;-121.918;2022-09-09T02:38:33;5.29;;;5.29;;
50345;SDS011;36248;37.258;-121.918;2022-09-09T02:41:08;5.12;;;5.11;;
50345;SDS011;36248;37.258;-121.918;2022-09-09T02:43:40;5.27;;;5.27;;
50345;SDS011;36248;37.258;-121.918;2022-09-09T02:46:13;5.26;;;5.26;;
50345;SDS011;36248;37.258;-121.918;2022-09-09T02:48:59;5.02;;;5.02;;
50345;SDS011;36248;37.258;-121.918;2022-09-09T02:51:33;5.16;;;5.16;;
50345;SDS011;36248;37.258;-121.918;2022-09-09T02:54:24;5.32;;;5.32;;
50345;SDS011;36248;37.258;-121.918;2022-09-09T02:56:58;4.77;;;4.77;;
50345;SDS011;36248;37.258;-121.918;2022-09-09T02:59:36;5.22;;;5.22;;
50345;SDS011;36248;37.258;-121.918;2022-09-09T03:02:06;5.31;;;5.31;;
50345;SDS011;36248;37.258;-121.918;2022-09-09T03:04:35;5.08;;;5.08;;
50345;SDS011;36248;37.258;-121.918;2022-09-09T03:07:05;5.51;;;5.51;;
50345;SDS011;36248;37.258;-121.918;2022-09-09T03:09:35;5.45;;;5.45;;
50345;SDS011;36248;37.258;-121.918;2022-09-09T03:12:05;5.25;;;5.25;;
50345;SDS011;36248;37.258;-121.918;2022-09-09T03:14:39;5.21;;;5.20;;
50345;SDS011;36248;37.258;-121.918;2022-09-09T03:17:09;5.29;;;5.29;;
50345;SDS011;36248;37.258;-121.918;2022-09-09T03:19:39;5.15;;;5.15;;
50345;SDS011;36248;37.258;-121.918;2022-09-09T03:22:10;5.41;;;5.41;;
50345;SDS011;36248;37.258;-121.918;2022-09-09T03:24:43;5.62;;;5.61;;
50345;SDS011;36248;37.258;-121.918;2022-09-09T03:27:13;5.38;;;5.32;;
50345;SDS011;36248;37.258;-121.918;2022-09-09T03:29:46;5.44;;;5.42;;
50345;SDS011;36248;37.258;-121.918;2022-09-09T03:32:16;5.34;;;5.32;;
50345;SDS011;36248;37.258;-121.918;2022-09-09T03:34:49;5.14;;;5.14;;
50345;SDS011;36248;37.258;-121.918;2022-09-09T03:37:19;5.53;;;5.53;;
50345;SDS011;36248;37.258;-121.918;2022-09-09T03:39:49;5.49;;;5.47;;
50345;SDS011;36248;37.258;-121.918;2022-09-09T03:42:20;5.27;;;5.25;;
50345;SDS011;36248;37.258;-121.918;2022-09-09T03:44:52;5.34;;;5.29;;
50345;SDS011;36248;37.258;-121.918;2022-09-09T03:47:23;5.32;;;5.28;;
50345;SDS011;36248;37.258;-121.918;2022-09-09T03:49:53;5.88;;;5.81;;
50345;SDS011;36248;37.258;-121.918;2022-09-09T03:52:22;5.64;;;5.62;;
50345;SDS011;36248;37.258;-121.918;2022-09-09T03:54:52;5.79;;;5.77;;
50345;SDS011;36248;37.258;-121.918;2022-09-09T03:57:22;5.80;;;5.75;;
50345;SDS011;36248;37.258;-121.918;2022-09-09T03:59:55;5.79;;;5.68;;
50345;SDS011;36248;37.258;-121.918;2022-09-09T04:02:26;5.72;;;5.62;;
50345;SDS011;36248;37.258;-121.918;2022-09-09T04:04:56;6.07;;;6.00;;
50345;SDS011;36248;37.258;-121.918;2022-09-09T04:07:27;5.92;;;5.92;;
50345;SDS011;36248;37.258;-121.918;2022-09-09T04:09:57;5.86;;;5.85;;
50345;SDS011;36248;37.258;-121.918;2022-09-09T04:12:26;6.03;;;5.99;;
50345;SDS011;36248;37.258;-121.918;2022-09-09T04:14:59;6.17;;;6.13;;
50345;SDS011;36248;37.258;-121.918;2022-09-09T04:17:29;6.37;;;6.32;;
50345;SDS011;36248;37.258;-121.918;2022-09-09T04:19:59;6.05;;;6.05;;
50345;SDS011;36248;37.258;-121.918;2022-09-09T04:22:29;6.35;;;6.34;;
50345;SDS011;36248;37.258;-121.918;2022-09-09T04:24:58;6.21;;;6.14;;
50345;SDS011;36248;37.258;-121.918;2022-09-09T04:27:27;6.25;;;6.15;;
50345;SDS011;36248;37.258;-121.918;2022-09-09T04:30:00;6.33;;;6.22;;
50345;SDS011;36248;37.258;-121.918;2022-09-09T04:32:29;6.54;;;6.38;;
50345;SDS011;36248;37.258;-121.918;2022-09-09T04:35:01;6.59;;;6.48;;
50345;SDS011;36248;37.258;-121.918;2022-09-09T04:37:31;6.22;;;6.19;;
50345;SDS011;36248;37.258;-121.918;2022-09-09T04:40:01;6.49;;;6.49;;
50345;SDS011;36248;37.258;-121.918;2022-09-09T04:42:34;6.40;;;6.39;;
50345;SDS011;36248;37.258;-121.918;2022-09-09T04:45:08;6.06;;;5.96;;
50345;SDS011;36248;37.258;-121.918;2022-09-09T04:47:39;5.98;;;5.89;;
50345;SDS011;36248;37.258;-121.918;2022-09-09T04:50:08;6.44;;;6.35;;
50345;SDS011;36248;37.258;-121.918;2022-09-09T04:52:38;6.05;;;5.99;;
50345;SDS011;36248;37.258;-121.918;2022-09-09T04:55:08;6.95;;;6.73;;
50345;SDS011;36248;37.258;-121.918;2022-09-09T04:57:38;7.19;;;6.93;;
50345;SDS011;36248;37.258;-121.918;2022-09-09T05:00:13;6.25;;;6.13;;
50345;SDS011;36248;37.258;-121.918;2022-09-09T05:02:45;6.36;;;6.17;;
50345;SDS011;36248;37.258;-121.918;2022-09-09T05:05:14;6.84;;;6.56;;
50345;SDS011;36248;37.258;-121.918;2022-09-09T05:07:46;6.41;;;6.20;;
50345;SDS011;36248;37.258;-121.918;2022-09-09T05:10:15;6.79;;;6.60;;
50345;SDS011;36248;37.258;-121.918;2022-09-09T05:12:51;6.11;;;6.01;;
50345;SDS011;36248;37.258;-121.918;2022-09-09T05:15:24;6.63;;;6.45;;
50345;SDS011;36248;37.258;-121.918;2022-09-09T05:17:56;6.54;;;6.34;;
50345;SDS011;36248;37.258;-121.918;2022-09-09T05:20:26;6.56;;;6.42;;
50345;SDS011;36248;37.258;-121.918;2022-09-09T05:22:56;6.85;;;6.67;;
50345;SDS011;36248;37.258;-121.918;2022-09-09T05:25:25;6.69;;;6.52;;
50345;SDS011;36248;37.258;-121.918;2022-09-09T05:27:55;6.78;;;6.58;;
50345;SDS011;36248;37.258;-121.918;2022-09-09T05:30:27;6.61;;;6.39;;
50345;SDS011;36248;37.258;-121.918;2022-09-09T05:32:57;6.50;;;6.34;;
50345;SDS011;36248;37.258;-121.918;2022-09-09T05:35:27;7.33;;;6.92;;
50345;SDS011;36248;37.258;-121.918;2022-09-09T05:37:59;7.19;;;6.79;;
50345;SDS011;36248;37.258;-121.918;2022-09-09T05:40:29;6.76;;;6.62;;
50345;SDS011;36248;37.258;-121.918;2022-09-09T05:42:59;6.73;;;6.52;;
50345;SDS011;36248;37.258;-121.918;2022-09-09T05:45:32;6.73;;;6.54;;
50345;SDS011;36248;37.258;-121.918;2022-09-09T05:48:02;6.86;;;6.66;;
50345;SDS011;36248;37.258;-121.918;2022-09-09T05:50:33;7.04;;;6.72;;
50345;SDS011;36248;37.258;-121.918;2022-09-09T05:53:02;6.99;;;6.71;;
50345;SDS011;36248;37.258;-121.918;2022-09-09T05:55:31;6.65;;;6.46;;
50345;SDS011;36248;37.258;-121.918;2022-09-09T05:58:01;6.81;;;6.58;;
50345;SDS011;36248;37.258;-121.918;2022-09-09T06:00:33;6.59;;;6.46;;
50345;SDS011;36248;37.258;-121.918;2022-09-09T06:03:03;6.89;;;6.71;;
50345;SDS011;36248;37.258;-121.918;2022-09-09T06:05:33;6.96;;;6.82;;
50345;SDS011;36248;37.258;-121.918;2022-09-09T06:08:03;7.19;;;6.97;;
50345;SDS011;36248;37.258;-121.918;2022-09-09T06:10:33;6.90;;;6.72;;
50345;SDS011;36248;37.258;-121.918;2022-09-09T06:13:03;6.80;;;6.67;;
50345;SDS011;36248;37.258;-121.918;2022-09-09T06:15:35;6.83;;;6.69;;
50345;SDS011;36248;37.258;-121.918;2022-09-09T06:18:06;6.87;;;6.77;;
50345;SDS011;36248;37.258;-121.918;2022-09-09T06:20:35;7.04;;;6.86;;
50345;SDS011;36248;37.258;-121.918;2022-09-09T06:23:05;7.30;;;7.00;;
50345;SDS011;36248;37.258;-121.918;2022-09-09T06:25:35;7.37;;;7.07;;
50345;SDS011;36248;37.258;-121.918;2022-09-09T06:28:06;7.00;;;6.74;;
50345;SDS011;36248;37.258;-121.918;2022-09-09T06:30:36;7.04;;;6.83;;
50345;SDS011;36248;37.258;-121.918;2022-09-09T06:33:07;7.12;;;6.97;;
50345;SDS011;36248;37.258;-121.918;2022-09-09T06:35:36;7.01;;;6.89;;
50345;SDS011;36248;37.258;-121.918;2022-09-09T06:38:06;7.13;;;6.94;;
50345;SDS011;36248;37.258;-121.918;2022-09-09T06:40:35;7.36;;;7.12;;
50345;SDS011;36248;37.258;-121.918;2022-09-09T06:43:05;8.10;;;7.70;;
50345;SDS011;36248;37.258;-121.918;2022-09-09T06:45:37;7.46;;;7.15;;
50345;SDS011;36248;37.258;-121.918;2022-09-09T06:48:07;7.46;;;7.16;;
50345;SDS011;36248;37.258;-121.918;2022-09-09T06:50:37;7.33;;;7.07;;
50345;SDS011;36248;37.258;-121.918;2022-09-09T06:53:06;7.66;;;7.30;;
50345;SDS011;36248;37.258;-121.918;2022-09-09T06:55:36;7.41;;;7.01;;
50345;SDS011;36248;37.258;-121.918;2022-09-09T06:58:09;7.79;;;7.37;;
50345;SDS011;36248;37.258;-121.918;2022-09-09T07:00:42;8.72;;;7.99;;
50345;SDS011;36248;37.258;-121.918;2022-09-09T07:03:11;8.52;;;8.00;;
50345;SDS011;36248;37.258;-121.918;2022-09-09T07:05:40;8.13;;;7.67;;
50345;SDS011;36248;37.258;-121.918;2022-09-09T07:08:10;8.04;;;7.61;;
50345;SDS011;36248;37.258;-121.918;2022-09-09T07:10:41;8.17;;;7.66;;
50345;SDS011;36248;37.258;-121.918;2022-09-09T07:13:11;8.06;;;7.64;;
50345;SDS011;36248;37.258;-121.918;2022-09-09T07:15:44;8.36;;;7.85;;
50345;SDS011;36248;37.258;-121.918;2022-09-09T07:18:13;7.69;;;7.26;;
50345;SDS011;36248;37.258;-121.918;2022-09-09T07:20:42;7.56;;;7.24;;
50345;SDS011;36248;37.258;-121.918;2022-09-09T07:23:12;8.16;;;7.70;;
50345;SDS011;36248;37.258;-121.918;2022-09-09T07:25:44;8.82;;;8.08;;
50345;SDS011;36248;37.258;-121.918;2022-09-09T07:28:14;8.70;;;7.97;;
50345;SDS011;36248;37.258;-121.918;2022-09-09T07:30:52;8.54;;;7.92;;
50345;SDS011;36248;37.258;-121.918;2022-09-09T07:33:24;8.12;;;7.62;;
50345;SDS011;36248;37.258;-121.918;2022-09-09T07:36:01;8.19;;;7.67;;
50345;SDS011;36248;37.258;-121.918;2022-09-09T07:38:37;8.90;;;8.29;;
50345;SDS011;36248;37.258;-121.918;2022-09-09T07:41:09;8.23;;;7.62;;
50345;SDS011;36248;37.258;-121.918;2022-09-09T07:43:41;8.24;;;7.79;;
50345;SDS011;36248;37.258;-121.918;2022-09-09T07:46:16;8.19;;;7.67;;
50345;SDS011;36248;37.258;-121.918;2022-09-09T07:48:48;8.38;;;7.93;;
50345;SDS011;36248;37.258;-121.918;2022-09-09T07:51:19;8.98;;;8.32;;
50345;SDS011;36248;37.258;-121.918;2022-09-09T07:53:52;9.51;;;8.65;;
50345;SDS011;36248;37.258;-121.918;2022-09-09T07:56:27;8.41;;;7.82;;
50345;SDS011;36248;37.258;-121.918;2022-09-09T07:58:58;8.79;;;8.19;;
50345;SDS011;36248;37.258;-121.918;2022-09-09T08:01:30;8.62;;;8.06;;
50345;SDS011;36248;37.258;-121.918;2022-09-09T08:04:04;8.69;;;8.17;;
50345;SDS011;36248;37.258;-121.918;2022-09-09T08:06:35;9.78;;;8.94;;
50345;SDS011;36248;37.258;-121.918;2022-09-09T08:09:07;8.72;;;8.15;;
50345;SDS011;36248;37.258;-121.918;2022-09-09T08:11:37;8.53;;;8.05;;
50345;SDS011;36248;37.258;-121.918;2022-09-09T08:14:08;9.44;;;8.64;;
50345;SDS011;36248;37.258;-121.918;2022-09-09T08:16:42;9.68;;;8.85;;
50345;SDS011;36248;37.258;-121.918;2022-09-09T08:19:13;9.55;;;8.75;;
50345;SDS011;36248;37.258;-121.918;2022-09-09T08:21:43;9.96;;;8.94;;
50345;SDS011;36248;37.258;-121.918;2022-09-09T08:24:14;9.90;;;9.05;;
50345;SDS011;36248;37.258;-121.918;2022-09-09T08:26:46;10.01;;;9.09;;
50345;SDS011;36248;37.258;-121.918;2022-09-09T08:29:17;9.06;;;8.32;;
50345;SDS011;36248;37.258;-121.918;2022-09-09T08:31:50;9.53;;;8.80;;
50345;SDS011;36248;37.258;-121.918;2022-09-09T08:34:23;9.19;;;8.49;;
50345;SDS011;36248;37.258;-121.918;2022-09-09T08:36:53;10.02;;;9.07;;
50345;SDS011;36248;37.258;-121.918;2022-09-09T08:39:23;9.97;;;9.16;;
50345;SDS011;36248;37.258;-121.918;2022-09-09T08:45:10;8.84;;;8.20;;
50345;SDS011;36248;37.258;-121.918;2022-09-09T08:47:52;8.58;;;7.87;;
50345;SDS011;36248;37.258;-121.918;2022-09-09T08:50:30;8.37;;;7.84;;
50345;SDS011;36248;37.258;-121.918;2022-09-09T08:53:04;8.55;;;7.98;;
50345;SDS011;36248;37.258;-121.918;2022-09-09T08:55:43;8.56;;;7.91;;
50345;SDS011;36248;37.258;-121.918;2022-09-09T08:58:17;9.16;;;8.29;;
50345;SDS011;36248;37.258;-121.918;2022-09-09T09:00:55;8.97;;;8.19;;
50345;SDS011;36248;37.258;-121.918;2022-09-09T09:03:42;8.36;;;7.87;;
50345;SDS011;36248;37.258;-121.918;2022-09-09T09:06:23;8.20;;;7.77;;
50345;SDS011;36248;37.258;-121.918;2022-09-09T09:09:02;9.54;;;8.68;;
50345;SDS011;36248;37.258;-121.918;2022-09-09T09:11:37;9.22;;;8.46;;
50345;SDS011;36248;37.258;-121.918;2022-09-09T09:14:09;8.98;;;8.19;;
50345;SDS011;36248;37.258;-121.918;2022-09-09T09:16:47;9.45;;;8.68;;
50345;SDS011;36248;37.258;-121.918;2022-09-09T09:19:24;9.21;;;8.40;;
50345;SDS011;36248;37.258;-121.918;2022-09-09T09:21:58;9.39;;;8.64;;
50345;SDS011;36248;37.258;-121.918;2022-09-09T09:24:34;9.17;;;8.42;;
50345;SDS011;36248;37.258;-121.918;2022-09-09T09:27:13;8.48;;;7.89;;
50345;SDS011;36248;37.258;-121.918;2022-09-09T09:29:44;8.31;;;7.81;;
50345;SDS011;36248;37.258;-121.918;2022-09-09T09:32:16;9.38;;;8.51;;
50345;SDS011;36248;37.258;-121.918;2022-09-09T09:34:51;10.28;;;9.12;;
50345;SDS011;36248;37.258;-121.918;2022-09-09T09:37:27;10.77;;;9.43;;
50345;SDS011;36248;37.258;-121.918;2022-09-09T09:40:07;9.65;;;8.74;;
50345;SDS011;36248;37.258;-121.918;2022-09-09T09:42:38;10.52;;;9.43;;
50345;SDS011;36248;37.258;-121.918;2022-09-09T09:45:23;9.58;;;8.75;;
50345;SDS011;36248;37.258;-121.918;2022-09-09T09:48:00;9.98;;;9.11;;
50345;SDS011;36248;37.258;-121.918;2022-09-09T09:50:34;9.66;;;8.86;;
50345;SDS011;36248;37.258;-121.918;2022-09-09T09:53:16;9.73;;;8.76;;
50345;SDS011;36248;37.258;-121.918;2022-09-09T09:55:51;10.91;;;9.53;;
50345;SDS011;36248;37.258;-121.918;2022-09-09T09:58:24;12.34;;;10.60;;
50345;SDS011;36248;37.258;-121.918;2022-09-09T10:00:56;11.20;;;9.91;;
50345;SDS011;36248;37.258;-121.918;2022-09-09T10:03:27;12.70;;;10.80;;
50345;SDS011;36248;37.258;-121.918;2022-09-09T10:06:00;13.13;;;11.12;;
50345;SDS011;36248;37.258;-121.918;2022-09-09T10:08:33;12.98;;;11.01;;
50345;SDS011;36248;37.258;-121.918;2022-09-09T10:11:14;12.56;;;10.62;;
50345;SDS011;36248;37.258;-121.918;2022-09-09T10:13:57;14.01;;;11.62;;
50345;SDS011;36248;37.258;-121.918;2022-09-09T10:16:37;14.08;;;11.53;;
50345;SDS011;36248;37.258;-121.918;2022-09-09T10:19:15;12.46;;;10.55;;
50345;SDS011;36248;37.258;-121.918;2022-09-09T10:22:00;13.46;;;11.40;;
50345;SDS011;36248;37.258;-121.918;2022-09-09T10:24:49;13.65;;;11.32;;
50345;SDS011;36248;37.258;-121.918;2022-09-09T10:27:32;12.50;;;10.48;;
50345;SDS011;36248;37.258;-121.918;2022-09-09T10:30:13;12.23;;;10.44;;
50345;SDS011;36248;37.258;-121.918;2022-09-09T10:32:48;12.43;;;10.63;;
50345;SDS011;36248;37.258;-121.918;2022-09-09T10:35:24;12.22;;;10.35;;
50345;SDS011;36248;37.258;-121.918;2022-09-09T10:38:17;11.74;;;10.09;;
50345;SDS011;36248;37.258;-121.918;2022-09-09T10:41:07;12.17;;;10.46;;
50345;SDS011;36248;37.258;-121.918;2022-09-09T10:44:10;13.64;;;11.50;;
50345;SDS011;36248;37.258;-121.918;2022-09-09T10:46:59;13.72;;;11.39;;
50345;SDS011;36248;37.258;-121.918;2022-09-09T10:50:05;15.39;;;12.50;;
50345;SDS011;36248;37.258;-121.918;2022-09-09T10:52:49;16.00;;;12.76;;
50345;SDS011;36248;37.258;-121.918;2022-09-09T10:55:35;17.42;;;13.44;;
50345;SDS011;36248;37.258;-121.918;2022-09-09T10:58:10;15.27;;;12.17;;
50345;SDS011;36248;37.258;-121.918;2022-09-09T11:00:46;15.66;;;12.13;;
50345;SDS011;36248;37.258;-121.918;2022-09-09T11:03:20;15.14;;;12.05;;
50345;SDS011;36248;37.258;-121.918;2022-09-09T11:05:56;14.47;;;11.64;;
50345;SDS011;36248;37.258;-121.918;2022-09-09T11:08:29;15.15;;;12.17;;
50345;SDS011;36248;37.258;-121.918;2022-09-09T11:11:04;17.86;;;13.98;;
50345;SDS011;36248;37.258;-121.918;2022-09-09T11:13:43;20.44;;;15.55;;
50345;SDS011;36248;37.258;-121.918;2022-09-09T11:16:20;18.75;;;14.58;;
50345;SDS011;36248;37.258;-121.918;2022-09-09T11:18:57;18.49;;;14.23;;
50345;SDS011;36248;37.258;-121.918;2022-09-09T11:21:36;17.87;;;13.98;;
50345;SDS011;36248;37.258;-121.918;2022-09-09T11:24:12;16.79;;;13.21;;
50345;SDS011;36248;37.258;-121.918;2022-09-09T11:26:52;18.62;;;14.26;;
50345;SDS011;36248;37.258;-121.918;2022-09-09T11:32:44;18.56;;;14.11;;
50345;SDS011;36248;37.258;-121.918;2022-09-09T11:35:35;16.36;;;12.82;;
50345;SDS011;36248;37.258;-121.918;2022-09-09T11:38:16;14.79;;;11.73;;
50345;SDS011;36248;37.258;-121.918;2022-09-09T11:40:54;15.41;;;12.18;;
50345;SDS011;36248;37.258;-121.918;2022-09-09T11:43:32;14.93;;;11.90;;
50345;SDS011;36248;37.258;-121.918;2022-09-09T11:46:08;16.51;;;12.80;;
50345;SDS011;36248;37.258;-121.918;2022-09-09T11:48:40;17.46;;;13.35;;
50345;SDS011;36248;37.258;-121.918;2022-09-09T11:51:12;15.59;;;12.31;;
50345;SDS011;36248;37.258;-121.918;2022-09-09T11:53:54;15.29;;;12.00;;
50345;SDS011;36248;37.258;-121.918;2022-09-09T11:56:28;15.24;;;12.15;;
50345;SDS011;36248;37.258;-121.918;2022-09-09T11:59:03;13.91;;;11.21;;
50345;SDS011;36248;37.258;-121.918;2022-09-09T12:01:36;15.46;;;12.34;;
50345;SDS011;36248;37.258;-121.918;2022-09-09T12:04:13;17.93;;;13.79;;
50345;SDS011;36248;37.258;-121.918;2022-09-09T12:06:50;18.04;;;13.74;;
50345;SDS011;36248;37.258;-121.918;2022-09-09T12:09:23;16.95;;;13.04;;
50345;SDS011;36248;37.258;-121.918;2022-09-09T12:15:19;17.78;;;13.63;;
50345;SDS011;36248;37.258;-121.918;2022-09-09T12:17:54;18.05;;;13.81;;
50345;SDS011;36248;37.258;-121.918;2022-09-09T12:20:33;16.05;;;12.54;;
50345;SDS011;36248;37.258;-121.918;2022-09-09T12:23:12;17.65;;;13.75;;
50345;SDS011;36248;37.258;-121.918;2022-09-09T12:25:57;19.66;;;14.93;;
50345;SDS011;36248;37.258;-121.918;2022-09-09T12:28:39;17.55;;;13.28;;
50345;SDS011;36248;37.258;-121.918;2022-09-09T12:31:18;16.05;;;12.42;;
50345;SDS011;36248;37.258;-121.918;2022-09-09T12:33:54;17.35;;;13.26;;
50345;SDS011;36248;37.258;-121.918;2022-09-09T12:36:24;20.29;;;15.26;;
50345;SDS011;36248;37.258;-121.918;2022-09-09T12:38:59;17.89;;;13.59;;
50345;SDS011;36248;37.258;-121.918;2022-09-09T12:41:39;18.58;;;14.22;;
50345;SDS011;36248;37.258;-121.918;2022-09-09T12:44:09;19.42;;;14.64;;
50345;SDS011;36248;37.258;-121.918;2022-09-09T12:46:41;20.65;;;15.30;;
50345;SDS011;36248;37.258;-121.918;2022-09-09T12:49:25;18.71;;;14.25;;
50345;SDS011;36248;37.258;-121.918;2022-09-09T12:52:01;20.47;;;15.28;;
50345;SDS011;36248;37.258;-121.918;2022-09-09T12:54:33;18.21;;;13.86;;
50345;SDS011;36248;37.258;-121.918;2022-09-09T12:57:05;16.59;;;12.88;;
50345;SDS011;36248;37.258;-121.918;2022-09-09T12:59:40;16.08;;;12.41;;
50345;SDS011;36248;37.258;-121.918;2022-09-09T13:02:16;17.95;;;13.65;;
50345;SDS011;36248;37.258;-121.918;2022-09-09T13:04:49;17.99;;;13.60;;
50345;SDS011;36248;37.258;-121.918;2022-09-09T13:07:19;18.94;;;14.29;;
50345;SDS011;36248;37.258;-121.918;2022-09-09T13:09:51;17.23;;;13.13;;
50345;SDS011;36248;37.258;-121.918;2022-09-09T13:12:20;17.04;;;13.09;;
50345;SDS011;36248;37.258;-121.918;2022-09-09T13:14:51;18.96;;;14.38;;
50345;SDS011;36248;37.258;-121.918;2022-09-09T13:17:26;14.88;;;11.66;;
50345;SDS011;36248;37.258;-121.918;2022-09-09T13:19:56;17.67;;;13.55;;
50345;SDS011;36248;37.258;-121.918;2022-09-09T13:22:28;19.71;;;14.65;;
50345;SDS011;36248;37.258;-121.918;2022-09-09T13:25:02;18.86;;;14.25;;
50345;SDS011;36248;37.258;-121.918;2022-09-09T13:27:37;17.86;;;13.55;;
50345;SDS011;36248;37.258;-121.918;2022-09-09T13:30:19;18.99;;;14.30;;
50345;SDS011;36248;37.258;-121.918;2022-09-09T13:33:03;19.59;;;14.76;;
50345;SDS011;36248;37.258;-121.918;2022-09-09T13:35:51;19.24;;;14.38;;
50345;SDS011;36248;37.258;-121.918;2022-09-09T13:38:23;21.07;;;15.57;;
50345;SDS011;36248;37.258;-121.918;2022-09-09T13:40:57;18.26;;;13.91;;
50345;SDS011;36248;37.258;-121.918;2022-09-09T13:43:30;19.22;;;14.34;;
50345;SDS011;36248;37.258;-121.918;2022-09-09T13:46:02;17.85;;;13.49;;
50345;SDS011;36248;37.258;-121.918;2022-09-09T13:48:35;17.75;;;13.23;;
50345;SDS011;36248;37.258;-121.918;2022-09-09T13:51:04;19.12;;;14.33;;
50345;SDS011;36248;37.258;-121.918;2022-09-09T13:53:50;17.91;;;13.62;;
50345;SDS011;36248;37.258;-121.918;2022-09-09T13:56:19;20.17;;;15.10;;
50345;SDS011;36248;37.258;-121.918;2022-09-09T13:58:49;18.26;;;13.69;;
50345;SDS011;36248;37.258;-121.918;2022-09-09T14:01:18;17.21;;;13.14;;
50345;SDS011;36248;37.258;-121.918;2022-09-09T14:03:50;16.81;;;12.78;;
50345;SDS011;36248;37.258;-121.918;2022-09-09T14:06:19;18.19;;;13.68;;
50345;SDS011;36248;37.258;-121.918;2022-09-09T14:08:50;18.16;;;13.82;;
50345;SDS011;36248;37.258;-121.918;2022-09-09T14:11:20;20.77;;;15.43;;
50345;SDS011;36248;37.258;-121.918;2022-09-09T14:13:50;18.32;;;13.87;;
50345;SDS011;36248;37.258;-121.918;2022-09-09T14:16:18;16.66;;;12.77;;
50345;SDS011;36248;37.258;-121.918;2022-09-09T14:18:51;19.06;;;14.40;;
50345;SDS011;36248;37.258;-121.918;2022-09-09T14:21:22;18.15;;;13.95;;
50345;SDS011;36248;37.258;-121.918;2022-09-09T14:23:52;18.16;;;13.83;;
50345;SDS011;36248;37.258;-121.918;2022-09-09T14:26:23;18.93;;;14.31;;
50345;SDS011;36248;37.258;-121.918;2022-09-09T14:28:54;19.83;;;14.98;;
50345;SDS011;36248;37.258;-121.918;2022-09-09T14:31:24;21.95;;;16.15;;
50345;SDS011;36248;37.258;-121.918;2022-09-09T14:33:56;21.75;;;16.08;;
50345;SDS011;36248;37.258;-121.918;2022-09-09T14:36:25;22.35;;;16.41;;
50345;SDS011;36248;37.258;-121.918;2022-09-09T14:38:55;19.92;;;15.18;;
50345;SDS011;36248;37.258;-121.918;2022-09-09T14:41:24;20.67;;;15.51;;
50345;SDS011;36248;37.258;-121.918;2022-09-09T14:43:54;22.21;;;16.33;;
50345;SDS011;36248;37.258;-121.918;2022-09-09T14:46:25;23.03;;;16.75;;
50345;SDS011;36248;37.258;-121.918;2022-09-09T14:48:58;22.91;;;16.75;;
50345;SDS011;36248;37.258;-121.918;2022-09-09T14:51:28;22.03;;;16.09;;